sensor_id;sensor_type;location;lat;lon;timestamp;P1;durP1;ratioP1;P2;durP2;ratioP2
18947;SDS011;9607;51.600;7.558;2023-10-08T00:00:24;11.32;;;4.32;;
18947;SDS011;9607;51.600;7.558;2023-10-08T00:03:12;8.05;;;4.35;;
18947;SDS011;9607;51.600;7.558;2023-10-08T00:05:40;7.93;;;4.57;;
18947;SDS011;9607;51.600;7.558;2023-10-08T00:08:07;6.80;;;4.03;;
18947;SDS011;9607;51.600;7.558;2023-10-08T00:10:34;9.18;;;4.75;;
18947;SDS011;9607;51.600;7.558;2023-10-08T00:13:02;8.70;;;4.70;;
18947;SDS011;9607;51.600;7.558;2023-10-08T00:15:32;7.95;;;4.13;;
18947;SDS011;9607;51.600;7.558;2023-10-08T00:18:01;5.40;;;4.10;;
18947;SDS011;9607;51.600;7.558;2023-10-08T00:20:32;8.00;;;3.88;;
18947;SDS011;9607;51.600;7.558;2023-10-08T00:23:07;7.32;;;3.83;;
18947;SDS011;9607;51.600;7.558;2023-10-08T00:25:35;6.85;;;4.40;;
18947;SDS011;9607;51.600;7.558;2023-10-08T00:28:06;9.63;;;4.28;;
18947;SDS011;9607;51.600;7.558;2023-10-08T00:30:38;10.07;;;4.43;;
18947;SDS011;9607;51.600;7.558;2023-10-08T00:33:06;7.72;;;3.90;;
18947;SDS011;9607;51.600;7.558;2023-10-08T00:35:38;14.07;;;4.97;;
18947;SDS011;9607;51.600;7.558;2023-10-08T00:38:06;8.48;;;4.65;;
18947;SDS011;9607;51.600;7.558;2023-10-08T00:40:41;8.57;;;4.57;;
18947;SDS011;9607;51.600;7.558;2023-10-08T00:43:10;8.55;;;4.25;;
18947;SDS011;9607;51.600;7.558;2023-10-08T00:45:53;10.70;;;4.47;;
18947;SDS011;9607;51.600;7.558;2023-10-08T00:48:20;6.57;;;4.18;;
18947;SDS011;9607;51.600;7.558;2023-10-08T00:50:54;8.52;;;4.35;;
18947;SDS011;9607;51.600;7.558;2023-10-08T00:53:33;7.10;;;4.00;;
18947;SDS011;9607;51.600;7.558;2023-10-08T00:56:04;7.45;;;4.35;;
18947;SDS011;9607;51.600;7.558;2023-10-08T00:58:37;9.27;;;4.57;;
18947;SDS011;9607;51.600;7.558;2023-10-08T01:01:05;8.52;;;4.70;;
18947;SDS011;9607;51.600;7.558;2023-10-08T01:03:35;7.85;;;4.47;;
18947;SDS011;9607;51.600;7.558;2023-10-08T01:06:05;9.10;;;4.50;;
18947;SDS011;9607;51.600;7.558;2023-10-08T01:08:35;8.60;;;4.05;;
18947;SDS011;9607;51.600;7.558;2023-10-08T01:11:16;9.98;;;4.65;;
18947;SDS011;9607;51.600;7.558;2023-10-08T01:13:43;7.93;;;4.53;;
18947;SDS011;9607;51.600;7.558;2023-10-08T01:16:11;8.90;;;4.78;;
18947;SDS011;9607;51.600;7.558;2023-10-08T01:18:39;10.30;;;5.35;;
18947;SDS011;9607;51.600;7.558;2023-10-08T01:21:16;8.00;;;4.10;;
18947;SDS011;9607;51.600;7.558;2023-10-08T01:24:00;5.30;;;3.70;;
18947;SDS011;9607;51.600;7.558;2023-10-08T01:26:30;8.18;;;4.18;;
18947;SDS011;9607;51.600;7.558;2023-10-08T01:29:00;8.70;;;4.40;;
18947;SDS011;9607;51.600;7.558;2023-10-08T01:31:32;6.72;;;4.70;;
18947;SDS011;9607;51.600;7.558;2023-10-08T01:33:59;6.75;;;4.25;;
18947;SDS011;9607;51.600;7.558;2023-10-08T01:36:29;8.93;;;4.65;;
18947;SDS011;9607;51.600;7.558;2023-10-08T01:38:57;6.80;;;4.07;;
18947;SDS011;9607;51.600;7.558;2023-10-08T01:41:28;7.85;;;3.90;;
18947;SDS011;9607;51.600;7.558;2023-10-08T01:43:55;7.53;;;4.00;;
18947;SDS011;9607;51.600;7.558;2023-10-08T01:46:24;9.70;;;4.05;;
18947;SDS011;9607;51.600;7.558;2023-10-08T01:48:52;7.10;;;4.60;;
18947;SDS011;9607;51.600;7.558;2023-10-08T01:51:25;9.40;;;4.63;;
18947;SDS011;9607;51.600;7.558;2023-10-08T01:54:02;7.50;;;3.97;;
18947;SDS011;9607;51.600;7.558;2023-10-08T01:56:37;7.75;;;4.53;;
18947;SDS011;9607;51.600;7.558;2023-10-08T01:59:06;8.65;;;4.60;;
18947;SDS011;9607;51.600;7.558;2023-10-08T02:01:35;7.05;;;4.15;;
18947;SDS011;9607;51.600;7.558;2023-10-08T02:04:03;11.23;;;4.47;;
18947;SDS011;9607;51.600;7.558;2023-10-08T02:06:31;8.25;;;4.05;;
18947;SDS011;9607;51.600;7.558;2023-10-08T02:08:58;7.00;;;4.05;;
18947;SDS011;9607;51.600;7.558;2023-10-08T02:11:31;8.65;;;4.53;;
18947;SDS011;9607;51.600;7.558;2023-10-08T02:14:07;9.10;;;4.95;;
18947;SDS011;9607;51.600;7.558;2023-10-08T02:16:34;9.38;;;4.68;;
18947;SDS011;9607;51.600;7.558;2023-10-08T02:19:02;9.18;;;4.57;;
18947;SDS011;9607;51.600;7.558;2023-10-08T02:21:29;9.88;;;5.00;;
18947;SDS011;9607;51.600;7.558;2023-10-08T02:23:58;5.72;;;4.15;;
18947;SDS011;9607;51.600;7.558;2023-10-08T02:26:25;9.68;;;4.78;;
18947;SDS011;9607;51.600;7.558;2023-10-08T02:28:54;7.55;;;4.97;;
18947;SDS011;9607;51.600;7.558;2023-10-08T02:31:25;8.68;;;4.07;;
18947;SDS011;9607;51.600;7.558;2023-10-08T02:33:53;7.50;;;3.78;;
18947;SDS011;9607;51.600;7.558;2023-10-08T02:36:20;6.70;;;4.18;;
18947;SDS011;9607;51.600;7.558;2023-10-08T02:38:47;6.78;;;3.72;;
18947;SDS011;9607;51.600;7.558;2023-10-08T02:41:15;8.15;;;4.47;;
18947;SDS011;9607;51.600;7.558;2023-10-08T02:43:42;9.63;;;4.43;;
18947;SDS011;9607;51.600;7.558;2023-10-08T02:46:10;9.02;;;5.13;;
18947;SDS011;9607;51.600;7.558;2023-10-08T02:48:41;12.23;;;4.93;;
18947;SDS011;9607;51.600;7.558;2023-10-08T02:51:08;9.32;;;4.25;;
18947;SDS011;9607;51.600;7.558;2023-10-08T02:53:39;11.77;;;4.78;;
18947;SDS011;9607;51.600;7.558;2023-10-08T02:56:09;9.05;;;4.78;;
18947;SDS011;9607;51.600;7.558;2023-10-08T02:58:39;8.68;;;4.70;;
18947;SDS011;9607;51.600;7.558;2023-10-08T03:01:07;10.82;;;5.18;;
18947;SDS011;9607;51.600;7.558;2023-10-08T03:03:37;12.15;;;5.15;;
18947;SDS011;9607;51.600;7.558;2023-10-08T03:06:06;9.98;;;4.68;;
18947;SDS011;9607;51.600;7.558;2023-10-08T03:08:36;10.05;;;5.10;;
18947;SDS011;9607;51.600;7.558;2023-10-08T03:11:06;14.25;;;4.95;;
18947;SDS011;9607;51.600;7.558;2023-10-08T03:13:41;10.43;;;4.93;;
18947;SDS011;9607;51.600;7.558;2023-10-08T03:16:11;9.32;;;4.97;;
18947;SDS011;9607;51.600;7.558;2023-10-08T03:18:39;10.90;;;5.00;;
18947;SDS011;9607;51.600;7.558;2023-10-08T03:21:11;10.48;;;5.25;;
18947;SDS011;9607;51.600;7.558;2023-10-08T03:24:07;13.27;;;5.35;;
18947;SDS011;9607;51.600;7.558;2023-10-08T03:26:49;11.43;;;5.07;;
18947;SDS011;9607;51.600;7.558;2023-10-08T03:29:20;10.77;;;5.40;;
18947;SDS011;9607;51.600;7.558;2023-10-08T03:31:49;8.07;;;4.80;;
18947;SDS011;9607;51.600;7.558;2023-10-08T03:34:16;10.88;;;5.20;;
18947;SDS011;9607;51.600;7.558;2023-10-08T03:36:46;14.02;;;4.88;;
18947;SDS011;9607;51.600;7.558;2023-10-08T03:39:14;9.00;;;4.72;;
18947;SDS011;9607;51.600;7.558;2023-10-08T03:41:44;10.32;;;5.35;;
18947;SDS011;9607;51.600;7.558;2023-10-08T03:44:24;10.27;;;6.07;;
18947;SDS011;9607;51.600;7.558;2023-10-08T03:46:55;11.32;;;5.13;;
18947;SDS011;9607;51.600;7.558;2023-10-08T03:49:22;6.78;;;4.45;;
18947;SDS011;9607;51.600;7.558;2023-10-08T03:51:57;7.35;;;4.45;;
18947;SDS011;9607;51.600;7.558;2023-10-08T03:54:25;9.32;;;5.40;;
18947;SDS011;9607;51.600;7.558;2023-10-08T03:57:01;9.63;;;5.70;;
18947;SDS011;9607;51.600;7.558;2023-10-08T03:59:29;10.75;;;5.28;;
18947;SDS011;9607;51.600;7.558;2023-10-08T04:01:58;8.20;;;4.55;;
18947;SDS011;9607;51.600;7.558;2023-10-08T04:04:33;11.32;;;5.15;;
18947;SDS011;9607;51.600;7.558;2023-10-08T04:07:15;10.05;;;5.00;;
18947;SDS011;9607;51.600;7.558;2023-10-08T04:09:54;9.07;;;5.00;;
18947;SDS011;9607;51.600;7.558;2023-10-08T04:12:41;7.70;;;5.50;;
18947;SDS011;9607;51.600;7.558;2023-10-08T04:15:12;13.27;;;5.88;;
18947;SDS011;9607;51.600;7.558;2023-10-08T04:17:41;8.35;;;4.38;;
18947;SDS011;9607;51.600;7.558;2023-10-08T04:20:10;8.05;;;4.90;;
18947;SDS011;9607;51.600;7.558;2023-10-08T04:22:57;9.90;;;5.18;;
18947;SDS011;9607;51.600;7.558;2023-10-08T04:25:25;9.85;;;4.70;;
18947;SDS011;9607;51.600;7.558;2023-10-08T04:27:53;8.43;;;5.00;;
18947;SDS011;9607;51.600;7.558;2023-10-08T04:30:23;10.10;;;4.93;;
18947;SDS011;9607;51.600;7.558;2023-10-08T04:32:58;13.07;;;5.60;;
18947;SDS011;9607;51.600;7.558;2023-10-08T04:35:31;8.80;;;5.50;;
18947;SDS011;9607;51.600;7.558;2023-10-08T04:38:04;9.07;;;4.95;;
18947;SDS011;9607;51.600;7.558;2023-10-08T04:40:33;9.32;;;5.00;;
18947;SDS011;9607;51.600;7.558;2023-10-08T04:43:07;10.50;;;5.00;;
18947;SDS011;9607;51.600;7.558;2023-10-08T04:45:35;11.77;;;6.10;;
18947;SDS011;9607;51.600;7.558;2023-10-08T04:48:03;10.90;;;4.97;;
18947;SDS011;9607;51.600;7.558;2023-10-08T04:50:34;11.68;;;4.80;;
18947;SDS011;9607;51.600;7.558;2023-10-08T04:53:04;12.07;;;5.38;;
18947;SDS011;9607;51.600;7.558;2023-10-08T04:55:34;9.98;;;4.80;;
18947;SDS011;9607;51.600;7.558;2023-10-08T04:58:06;8.63;;;4.75;;
18947;SDS011;9607;51.600;7.558;2023-10-08T05:00:44;14.40;;;5.72;;
18947;SDS011;9607;51.600;7.558;2023-10-08T05:03:18;11.07;;;5.57;;
18947;SDS011;9607;51.600;7.558;2023-10-08T05:05:47;13.30;;;5.95;;
18947;SDS011;9607;51.600;7.558;2023-10-08T05:08:35;17.48;;;5.72;;
18947;SDS011;9607;51.600;7.558;2023-10-08T05:11:13;12.70;;;6.25;;
18947;SDS011;9607;51.600;7.558;2023-10-08T05:14:02;14.00;;;6.38;;
18947;SDS011;9607;51.600;7.558;2023-10-08T05:16:41;13.23;;;5.90;;
18947;SDS011;9607;51.600;7.558;2023-10-08T05:19:25;11.60;;;6.30;;
18947;SDS011;9607;51.600;7.558;2023-10-08T05:22:13;14.27;;;6.55;;
18947;SDS011;9607;51.600;7.558;2023-10-08T05:25:01;12.38;;;5.90;;
18947;SDS011;9607;51.600;7.558;2023-10-08T05:27:36;13.55;;;6.65;;
18947;SDS011;9607;51.600;7.558;2023-10-08T05:30:22;14.32;;;6.20;;
18947;SDS011;9607;51.600;7.558;2023-10-08T05:33:04;8.88;;;5.07;;
18947;SDS011;9607;51.600;7.558;2023-10-08T05:35:50;8.10;;;4.40;;
18947;SDS011;9607;51.600;7.558;2023-10-08T05:38:27;3.53;;;2.70;;
18947;SDS011;9607;51.600;7.558;2023-10-08T05:41:13;2.75;;;2.25;;
18947;SDS011;9607;51.600;7.558;2023-10-08T05:44:04;2.50;;;1.95;;
18947;SDS011;9607;51.600;7.558;2023-10-08T05:46:45;3.50;;;1.85;;
18947;SDS011;9607;51.600;7.558;2023-10-08T05:49:32;1.45;;;1.20;;
18947;SDS011;9607;51.600;7.558;2023-10-08T05:52:19;1.45;;;0.90;;
18947;SDS011;9607;51.600;7.558;2023-10-08T05:55:06;0.70;;;0.70;;
18947;SDS011;9607;51.600;7.558;2023-10-08T05:57:44;0.73;;;0.73;;
18947;SDS011;9607;51.600;7.558;2023-10-08T06:00:17;0.80;;;0.80;;
18947;SDS011;9607;51.600;7.558;2023-10-08T06:03:11;1.02;;;0.68;;
18947;SDS011;9607;51.600;7.558;2023-10-08T06:05:54;1.10;;;1.00;;
18947;SDS011;9607;51.600;7.558;2023-10-08T06:08:47;0.88;;;0.70;;
18947;SDS011;9607;51.600;7.558;2023-10-08T06:11:40;1.05;;;0.68;;
18947;SDS011;9607;51.600;7.558;2023-10-08T06:14:11;2.13;;;0.80;;
18947;SDS011;9607;51.600;7.558;2023-10-08T06:16:42;2.22;;;0.70;;
18947;SDS011;9607;51.600;7.558;2023-10-08T06:19:10;0.70;;;0.70;;
18947;SDS011;9607;51.600;7.558;2023-10-08T06:21:36;0.93;;;0.80;;
18947;SDS011;9607;51.600;7.558;2023-10-08T06:24:05;1.23;;;0.77;;
18947;SDS011;9607;51.600;7.558;2023-10-08T06:26:35;0.32;;;0.32;;
18947;SDS011;9607;51.600;7.558;2023-10-08T06:29:07;0.65;;;0.43;;
18947;SDS011;9607;51.600;7.558;2023-10-08T06:31:45;1.88;;;0.60;;
18947;SDS011;9607;51.600;7.558;2023-10-08T06:34:17;1.45;;;0.55;;
18947;SDS011;9607;51.600;7.558;2023-10-08T06:36:46;0.80;;;0.80;;
18947;SDS011;9607;51.600;7.558;2023-10-08T06:39:18;0.85;;;0.70;;
18947;SDS011;9607;51.600;7.558;2023-10-08T06:41:50;0.70;;;0.70;;
18947;SDS011;9607;51.600;7.558;2023-10-08T06:44:18;0.70;;;0.70;;
18947;SDS011;9607;51.600;7.558;2023-10-08T06:46:46;0.93;;;0.80;;
18947;SDS011;9607;51.600;7.558;2023-10-08T06:49:14;0.98;;;0.73;;
18947;SDS011;9607;51.600;7.558;2023-10-08T06:51:43;1.45;;;0.68;;
18947;SDS011;9607;51.600;7.558;2023-10-08T06:54:10;0.77;;;0.77;;
18947;SDS011;9607;51.600;7.558;2023-10-08T06:56:39;1.38;;;0.65;;
18947;SDS011;9607;51.600;7.558;2023-10-08T06:59:11;0.50;;;0.50;;
18947;SDS011;9607;51.600;7.558;2023-10-08T07:01:37;1.55;;;0.73;;
18947;SDS011;9607;51.600;7.558;2023-10-08T07:04:12;0.70;;;0.70;;
18947;SDS011;9607;51.600;7.558;2023-10-08T07:06:40;1.65;;;1.20;;
18947;SDS011;9607;51.600;7.558;2023-10-08T07:09:09;1.15;;;0.90;;
18947;SDS011;9607;51.600;7.558;2023-10-08T07:11:47;1.15;;;1.00;;
18947;SDS011;9607;51.600;7.558;2023-10-08T07:14:19;0.98;;;0.90;;
18947;SDS011;9607;51.600;7.558;2023-10-08T07:16:46;1.10;;;0.95;;
18947;SDS011;9607;51.600;7.558;2023-10-08T07:19:18;1.30;;;1.10;;
18947;SDS011;9607;51.600;7.558;2023-10-08T07:21:48;1.15;;;1.05;;
18947;SDS011;9607;51.600;7.558;2023-10-08T07:24:19;1.08;;;1.02;;
18947;SDS011;9607;51.600;7.558;2023-10-08T07:26:48;1.30;;;1.17;;
18947;SDS011;9607;51.600;7.558;2023-10-08T07:29:20;1.92;;;1.33;;
18947;SDS011;9607;51.600;7.558;2023-10-08T07:31:50;0.95;;;0.77;;
18947;SDS011;9607;51.600;7.558;2023-10-08T07:34:19;2.85;;;1.10;;
18947;SDS011;9607;51.600;7.558;2023-10-08T07:36:52;1.70;;;1.30;;
18947;SDS011;9607;51.600;7.558;2023-10-08T07:39:21;2.28;;;1.40;;
18947;SDS011;9607;51.600;7.558;2023-10-08T07:41:59;1.02;;;0.90;;
18947;SDS011;9607;51.600;7.558;2023-10-08T07:44:26;1.08;;;0.73;;
18947;SDS011;9607;51.600;7.558;2023-10-08T07:46:55;0.90;;;0.77;;
18947;SDS011;9607;51.600;7.558;2023-10-08T07:49:24;1.35;;;0.75;;
18947;SDS011;9607;51.600;7.558;2023-10-08T07:51:55;2.38;;;1.20;;
18947;SDS011;9607;51.600;7.558;2023-10-08T07:54:23;2.92;;;1.20;;
18947;SDS011;9607;51.600;7.558;2023-10-08T07:56:53;1.50;;;1.20;;
18947;SDS011;9607;51.600;7.558;2023-10-08T07:59:24;2.10;;;1.08;;
18947;SDS011;9607;51.600;7.558;2023-10-08T08:01:51;2.03;;;1.17;;
18947;SDS011;9607;51.600;7.558;2023-10-08T08:04:20;1.63;;;1.10;;
18947;SDS011;9607;51.600;7.558;2023-10-08T08:06:49;2.10;;;1.40;;
18947;SDS011;9607;51.600;7.558;2023-10-08T08:09:16;1.65;;;1.05;;
18947;SDS011;9607;51.600;7.558;2023-10-08T08:11:48;1.30;;;1.20;;
18947;SDS011;9607;51.600;7.558;2023-10-08T08:14:15;1.85;;;1.63;;
18947;SDS011;9607;51.600;7.558;2023-10-08T08:16:43;2.50;;;1.65;;
18947;SDS011;9607;51.600;7.558;2023-10-08T08:19:13;2.20;;;1.40;;
18947;SDS011;9607;51.600;7.558;2023-10-08T08:21:41;2.22;;;1.50;;
18947;SDS011;9607;51.600;7.558;2023-10-08T08:24:12;2.80;;;1.65;;
18947;SDS011;9607;51.600;7.558;2023-10-08T08:26:50;3.20;;;1.42;;
18947;SDS011;9607;51.600;7.558;2023-10-08T08:29:26;4.40;;;2.20;;
18947;SDS011;9607;51.600;7.558;2023-10-08T08:31:54;3.60;;;2.42;;
18947;SDS011;9607;51.600;7.558;2023-10-08T08:34:21;3.22;;;2.28;;
18947;SDS011;9607;51.600;7.558;2023-10-08T08:36:49;2.38;;;1.80;;
18947;SDS011;9607;51.600;7.558;2023-10-08T08:39:17;2.90;;;1.92;;
18947;SDS011;9607;51.600;7.558;2023-10-08T08:41:58;3.03;;;1.80;;
18947;SDS011;9607;51.600;7.558;2023-10-08T08:44:29;3.55;;;1.50;;
18947;SDS011;9607;51.600;7.558;2023-10-08T08:47:00;3.35;;;1.15;;
18947;SDS011;9607;51.600;7.558;2023-10-08T08:49:29;2.03;;;1.00;;
18947;SDS011;9607;51.600;7.558;2023-10-08T08:52:02;3.30;;;1.23;;
18947;SDS011;9607;51.600;7.558;2023-10-08T08:54:31;1.90;;;1.10;;
18947;SDS011;9607;51.600;7.558;2023-10-08T08:56:58;2.78;;;1.02;;
18947;SDS011;9607;51.600;7.558;2023-10-08T08:59:29;2.25;;;0.98;;
18947;SDS011;9607;51.600;7.558;2023-10-08T09:01:57;4.18;;;1.10;;
18947;SDS011;9607;51.600;7.558;2023-10-08T09:04:28;2.58;;;0.77;;
18947;SDS011;9607;51.600;7.558;2023-10-08T09:06:58;3.60;;;1.05;;
18947;SDS011;9607;51.600;7.558;2023-10-08T09:09:32;2.20;;;0.90;;
18947;SDS011;9607;51.600;7.558;2023-10-08T09:12:00;1.63;;;0.70;;
18947;SDS011;9607;51.600;7.558;2023-10-08T09:14:29;2.65;;;0.90;;
18947;SDS011;9607;51.600;7.558;2023-10-08T09:16:59;2.35;;;0.98;;
18947;SDS011;9607;51.600;7.558;2023-10-08T09:19:29;5.15;;;1.23;;
18947;SDS011;9607;51.600;7.558;2023-10-08T09:22:00;2.22;;;0.70;;
18947;SDS011;9607;51.600;7.558;2023-10-08T09:24:29;1.60;;;0.77;;
18947;SDS011;9607;51.600;7.558;2023-10-08T09:26:57;2.90;;;0.77;;
18947;SDS011;9607;51.600;7.558;2023-10-08T09:29:24;2.70;;;0.70;;
18947;SDS011;9607;51.600;7.558;2023-10-08T09:31:52;4.03;;;1.25;;
18947;SDS011;9607;51.600;7.558;2023-10-08T09:34:21;2.80;;;0.77;;
18947;SDS011;9607;51.600;7.558;2023-10-08T09:36:48;4.32;;;1.02;;
18947;SDS011;9607;51.600;7.558;2023-10-08T09:39:16;4.95;;;1.40;;
18947;SDS011;9607;51.600;7.558;2023-10-08T09:41:48;1.95;;;0.88;;
18947;SDS011;9607;51.600;7.558;2023-10-08T09:44:18;3.17;;;1.10;;
18947;SDS011;9607;51.600;7.558;2023-10-08T09:46:53;3.03;;;0.95;;
18947;SDS011;9607;51.600;7.558;2023-10-08T09:49:32;3.95;;;1.20;;
18947;SDS011;9607;51.600;7.558;2023-10-08T09:52:04;2.47;;;1.23;;
18947;SDS011;9607;51.600;7.558;2023-10-08T09:54:35;5.70;;;1.10;;
18947;SDS011;9607;51.600;7.558;2023-10-08T09:57:08;3.13;;;1.00;;
18947;SDS011;9607;51.600;7.558;2023-10-08T09:59:37;5.68;;;1.38;;
18947;SDS011;9607;51.600;7.558;2023-10-08T10:02:06;2.40;;;0.90;;
18947;SDS011;9607;51.600;7.558;2023-10-08T10:04:35;3.97;;;1.10;;
18947;SDS011;9607;51.600;7.558;2023-10-08T10:07:08;1.90;;;0.88;;
18947;SDS011;9607;51.600;7.558;2023-10-08T10:09:38;2.75;;;0.98;;
18947;SDS011;9607;51.600;7.558;2023-10-08T10:12:05;1.80;;;0.80;;
18947;SDS011;9607;51.600;7.558;2023-10-08T10:14:41;2.97;;;0.95;;
18947;SDS011;9607;51.600;7.558;2023-10-08T10:17:09;2.08;;;0.80;;
18947;SDS011;9607;51.600;7.558;2023-10-08T10:19:40;4.03;;;1.15;;
18947;SDS011;9607;51.600;7.558;2023-10-08T10:22:10;2.53;;;1.10;;
18947;SDS011;9607;51.600;7.558;2023-10-08T10:24:40;2.20;;;0.82;;
18947;SDS011;9607;51.600;7.558;2023-10-08T10:27:13;2.90;;;0.90;;
18947;SDS011;9607;51.600;7.558;2023-10-08T10:29:44;2.88;;;0.80;;
18947;SDS011;9607;51.600;7.558;2023-10-08T10:32:13;3.83;;;1.10;;
18947;SDS011;9607;51.600;7.558;2023-10-08T10:34:41;3.67;;;1.17;;
18947;SDS011;9607;51.600;7.558;2023-10-08T10:37:08;3.53;;;0.88;;
18947;SDS011;9607;51.600;7.558;2023-10-08T10:39:50;3.13;;;1.10;;
18947;SDS011;9607;51.600;7.558;2023-10-08T10:42:18;2.40;;;0.77;;
18947;SDS011;9607;51.600;7.558;2023-10-08T10:44:48;3.55;;;0.80;;
18947;SDS011;9607;51.600;7.558;2023-10-08T10:47:15;2.67;;;0.63;;
18947;SDS011;9607;51.600;7.558;2023-10-08T10:49:52;3.17;;;1.05;;
18947;SDS011;9607;51.600;7.558;2023-10-08T10:52:21;2.80;;;0.85;;
18947;SDS011;9607;51.600;7.558;2023-10-08T10:55:09;4.07;;;0.73;;
18947;SDS011;9607;51.600;7.558;2023-10-08T10:57:50;2.25;;;0.90;;
18947;SDS011;9607;51.600;7.558;2023-10-08T11:00:22;3.45;;;1.05;;
18947;SDS011;9607;51.600;7.558;2023-10-08T11:03:07;3.55;;;0.70;;
18947;SDS011;9607;51.600;7.558;2023-10-08T11:05:41;2.25;;;0.80;;
18947;SDS011;9607;51.600;7.558;2023-10-08T11:08:13;2.33;;;0.88;;
18947;SDS011;9607;51.600;7.558;2023-10-08T11:10:43;2.20;;;0.65;;
18947;SDS011;9607;51.600;7.558;2023-10-08T11:13:16;3.70;;;1.20;;
18947;SDS011;9607;51.600;7.558;2023-10-08T11:15:46;2.70;;;0.63;;
18947;SDS011;9607;51.600;7.558;2023-10-08T11:18:17;2.78;;;0.95;;
18947;SDS011;9607;51.600;7.558;2023-10-08T11:20:46;3.53;;;0.65;;
18947;SDS011;9607;51.600;7.558;2023-10-08T11:23:31;1.70;;;0.80;;
18947;SDS011;9607;51.600;7.558;2023-10-08T11:26:00;1.40;;;0.57;;
18947;SDS011;9607;51.600;7.558;2023-10-08T11:28:29;3.40;;;1.08;;
18947;SDS011;9607;51.600;7.558;2023-10-08T11:31:00;3.08;;;0.68;;
18947;SDS011;9607;51.600;7.558;2023-10-08T11:33:33;2.50;;;0.82;;
18947;SDS011;9607;51.600;7.558;2023-10-08T11:36:02;4.35;;;1.00;;
18947;SDS011;9607;51.600;7.558;2023-10-08T11:38:38;1.98;;;0.70;;
18947;SDS011;9607;51.600;7.558;2023-10-08T11:41:09;2.80;;;0.90;;
18947;SDS011;9607;51.600;7.558;2023-10-08T11:43:45;1.27;;;0.63;;
18947;SDS011;9607;51.600;7.558;2023-10-08T11:46:20;1.02;;;0.57;;
18947;SDS011;9607;51.600;7.558;2023-10-08T11:48:48;2.95;;;1.20;;
18947;SDS011;9607;51.600;7.558;2023-10-08T11:51:15;3.72;;;0.80;;
18947;SDS011;9607;51.600;7.558;2023-10-08T11:53:43;1.02;;;0.63;;
18947;SDS011;9607;51.600;7.558;2023-10-08T11:56:10;2.15;;;0.60;;
18947;SDS011;9607;51.600;7.558;2023-10-08T11:58:38;1.20;;;0.40;;
18947;SDS011;9607;51.600;7.558;2023-10-08T12:01:09;1.35;;;0.60;;
18947;SDS011;9607;51.600;7.558;2023-10-08T12:03:42;1.25;;;0.55;;
18947;SDS011;9607;51.600;7.558;2023-10-08T12:06:09;2.10;;;0.60;;
18947;SDS011;9607;51.600;7.558;2023-10-08T12:08:40;1.20;;;0.52;;
18947;SDS011;9607;51.600;7.558;2023-10-08T12:11:10;1.98;;;0.70;;
18947;SDS011;9607;51.600;7.558;2023-10-08T12:13:38;1.02;;;0.60;;
18947;SDS011;9607;51.600;7.558;2023-10-08T12:16:09;1.30;;;0.60;;
18947;SDS011;9607;51.600;7.558;2023-10-08T12:18:44;1.67;;;0.70;;
18947;SDS011;9607;51.600;7.558;2023-10-08T12:21:13;3.20;;;0.70;;
18947;SDS011;9607;51.600;7.558;2023-10-08T12:23:42;2.28;;;0.60;;
18947;SDS011;9607;51.600;7.558;2023-10-08T12:26:11;1.88;;;0.70;;
18947;SDS011;9607;51.600;7.558;2023-10-08T12:28:41;0.45;;;0.40;;
18947;SDS011;9607;51.600;7.558;2023-10-08T12:31:09;0.55;;;0.45;;
18947;SDS011;9607;51.600;7.558;2023-10-08T12:33:37;0.93;;;0.50;;
18947;SDS011;9607;51.600;7.558;2023-10-08T12:36:06;1.38;;;0.57;;
18947;SDS011;9607;51.600;7.558;2023-10-08T12:38:37;1.05;;;0.43;;
18947;SDS011;9607;51.600;7.558;2023-10-08T12:41:06;2.97;;;0.70;;
18947;SDS011;9607;51.600;7.558;2023-10-08T12:43:37;2.00;;;0.75;;
18947;SDS011;9607;51.600;7.558;2023-10-08T12:46:07;1.00;;;0.70;;
18947;SDS011;9607;51.600;7.558;2023-10-08T12:48:36;1.58;;;0.70;;
18947;SDS011;9607;51.600;7.558;2023-10-08T12:51:03;2.10;;;0.60;;
18947;SDS011;9607;51.600;7.558;2023-10-08T12:53:36;1.80;;;0.57;;
18947;SDS011;9607;51.600;7.558;2023-10-08T12:56:04;0.75;;;0.38;;
18947;SDS011;9607;51.600;7.558;2023-10-08T12:58:38;1.30;;;0.45;;
18947;SDS011;9607;51.600;7.558;2023-10-08T13:01:06;1.10;;;0.50;;
18947;SDS011;9607;51.600;7.558;2023-10-08T13:03:35;2.67;;;0.82;;
18947;SDS011;9607;51.600;7.558;2023-10-08T13:06:06;1.48;;;0.80;;
18947;SDS011;9607;51.600;7.558;2023-10-08T13:08:38;0.68;;;0.55;;
18947;SDS011;9607;51.600;7.558;2023-10-08T13:11:05;2.10;;;0.65;;
18947;SDS011;9607;51.600;7.558;2023-10-08T13:13:32;1.90;;;0.60;;
18947;SDS011;9607;51.600;7.558;2023-10-08T13:16:02;1.42;;;0.70;;
18947;SDS011;9607;51.600;7.558;2023-10-08T13:18:32;0.77;;;0.60;;
18947;SDS011;9607;51.600;7.558;2023-10-08T13:21:03;2.70;;;0.82;;
18947;SDS011;9607;51.600;7.558;2023-10-08T13:23:31;1.52;;;0.60;;
18947;SDS011;9607;51.600;7.558;2023-10-08T13:26:01;2.63;;;0.70;;
18947;SDS011;9607;51.600;7.558;2023-10-08T13:28:31;1.63;;;0.70;;
18947;SDS011;9607;51.600;7.558;2023-10-08T13:30:59;1.13;;;0.60;;
18947;SDS011;9607;51.600;7.558;2023-10-08T13:33:34;1.42;;;0.75;;
18947;SDS011;9607;51.600;7.558;2023-10-08T13:36:04;2.28;;;0.80;;
18947;SDS011;9607;51.600;7.558;2023-10-08T13:38:34;1.08;;;0.45;;
18947;SDS011;9607;51.600;7.558;2023-10-08T13:41:02;1.98;;;0.95;;
18947;SDS011;9607;51.600;7.558;2023-10-08T13:43:32;1.95;;;1.10;;
18947;SDS011;9607;51.600;7.558;2023-10-08T13:46:03;2.75;;;1.20;;
18947;SDS011;9607;51.600;7.558;2023-10-08T13:48:31;1.63;;;1.50;;
18947;SDS011;9607;51.600;7.558;2023-10-08T13:50:59;3.35;;;2.10;;
18947;SDS011;9607;51.600;7.558;2023-10-08T13:53:28;2.25;;;1.90;;
18947;SDS011;9607;51.600;7.558;2023-10-08T13:55:57;1.35;;;1.25;;
18947;SDS011;9607;51.600;7.558;2023-10-08T13:58:30;2.75;;;1.38;;
18947;SDS011;9607;51.600;7.558;2023-10-08T14:01:00;2.25;;;1.10;;
18947;SDS011;9607;51.600;7.558;2023-10-08T14:03:43;1.40;;;1.05;;
18947;SDS011;9607;51.600;7.558;2023-10-08T14:06:10;1.35;;;1.00;;
18947;SDS011;9607;51.600;7.558;2023-10-08T14:08:37;1.98;;;1.10;;
18947;SDS011;9607;51.600;7.558;2023-10-08T14:11:05;4.10;;;1.70;;
18947;SDS011;9607;51.600;7.558;2023-10-08T14:13:33;6.20;;;4.75;;
18947;SDS011;9607;51.600;7.558;2023-10-08T14:16:03;4.00;;;2.67;;
18947;SDS011;9607;51.600;7.558;2023-10-08T14:18:33;3.97;;;2.40;;
18947;SDS011;9607;51.600;7.558;2023-10-08T14:21:05;4.45;;;2.33;;
18947;SDS011;9607;51.600;7.558;2023-10-08T14:23:35;3.15;;;1.63;;
18947;SDS011;9607;51.600;7.558;2023-10-08T14:26:05;1.35;;;1.00;;
18947;SDS011;9607;51.600;7.558;2023-10-08T14:28:34;2.22;;;1.00;;
18947;SDS011;9607;51.600;7.558;2023-10-08T14:31:09;2.38;;;0.88;;
18947;SDS011;9607;51.600;7.558;2023-10-08T14:33:40;1.20;;;0.80;;
18947;SDS011;9607;51.600;7.558;2023-10-08T14:36:09;2.70;;;1.30;;
18947;SDS011;9607;51.600;7.558;2023-10-08T14:38:53;4.65;;;4.25;;
18947;SDS011;9607;51.600;7.558;2023-10-08T14:41:41;3.05;;;2.85;;
18947;SDS011;9607;51.600;7.558;2023-10-08T14:44:27;2.00;;;1.90;;
18947;SDS011;9607;51.600;7.558;2023-10-08T14:46:54;2.90;;;1.90;;
18947;SDS011;9607;51.600;7.558;2023-10-08T14:49:21;4.15;;;2.25;;
18947;SDS011;9607;51.600;7.558;2023-10-08T14:51:48;1.58;;;1.17;;
18947;SDS011;9607;51.600;7.558;2023-10-08T14:54:18;1.58;;;0.80;;
18947;SDS011;9607;51.600;7.558;2023-10-08T14:56:45;1.75;;;0.90;;
18947;SDS011;9607;51.600;7.558;2023-10-08T14:59:12;1.27;;;0.80;;
18947;SDS011;9607;51.600;7.558;2023-10-08T15:01:41;1.98;;;1.00;;
18947;SDS011;9607;51.600;7.558;2023-10-08T15:04:09;2.22;;;0.85;;
18947;SDS011;9607;51.600;7.558;2023-10-08T15:06:36;1.45;;;0.90;;
18947;SDS011;9607;51.600;7.558;2023-10-08T15:09:04;1.73;;;0.90;;
18947;SDS011;9607;51.600;7.558;2023-10-08T15:11:32;2.35;;;1.00;;
18947;SDS011;9607;51.600;7.558;2023-10-08T15:14:01;1.80;;;0.70;;
18947;SDS011;9607;51.600;7.558;2023-10-08T15:16:34;1.35;;;0.90;;
18947;SDS011;9607;51.600;7.558;2023-10-08T15:19:03;1.67;;;0.93;;
18947;SDS011;9607;51.600;7.558;2023-10-08T15:21:30;3.65;;;2.53;;
18947;SDS011;9607;51.600;7.558;2023-10-08T15:23:58;4.10;;;1.42;;
18947;SDS011;9607;51.600;7.558;2023-10-08T15:26:30;2.25;;;1.40;;